sensor_id;sensor_type;location;lat;lon;timestamp;temperature;humidity
20070;DHT22;10195;50.868;4.382;2022-11-20T00:01:41;4.50;99.90
20070;DHT22;10195;50.868;4.382;2022-11-20T00:04:08;4.40;99.90
20070;DHT22;10195;50.868;4.382;2022-11-20T00:06:34;4.20;99.90
20070;DHT22;10195;50.868;4.382;2022-11-20T00:09:00;4.10;99.90
20070;DHT22;10195;50.868;4.382;2022-11-20T00:11:27;4.20;99.90
20070;DHT22;10195;50.868;4.382;2022-11-20T00:13:55;4.40;99.90
20070;DHT22;10195;50.868;4.382;2022-11-20T00:16:24;4.40;99.90
20070;DHT22;10195;50.868;4.382;2022-11-20T00:18:50;4.30;99.90
20070;DHT22;10195;50.868;4.382;2022-11-20T00:21:22;4.30;99.90
20070;DHT22;10195;50.868;4.382;2022-11-20T00:23:48;4.40;99.90
20070;DHT22;10195;50.868;4.382;2022-11-20T00:26:17;4.50;99.90
20070;DHT22;10195;50.868;4.382;2022-11-20T00:28:44;4.60;99.90
20070;DHT22;10195;50.868;4.382;2022-11-20T00:31:15;4.60;99.90
20070;DHT22;10195;50.868;4.382;2022-11-20T00:33:41;4.60;99.90
20070;DHT22;10195;50.868;4.382;2022-11-20T00:36:10;4.60;99.90
20070;DHT22;10195;50.868;4.382;2022-11-20T00:38:35;4.50;99.90
20070;DHT22;10195;50.868;4.382;2022-11-20T00:41:04;4.50;99.90
20070;DHT22;10195;50.868;4.382;2022-11-20T00:43:30;4.30;99.90
20070;DHT22;10195;50.868;4.382;2022-11-20T00:46:00;4.40;99.90
20070;DHT22;10195;50.868;4.382;2022-11-20T00:48:26;4.60;99.90
20070;DHT22;10195;50.868;4.382;2022-11-20T00:50:53;4.70;99.90
20070;DHT22;10195;50.868;4.382;2022-11-20T00:53:18;4.60;99.90
20070;DHT22;10195;50.868;4.382;2022-11-20T00:55:56;4.80;99.90
20070;DHT22;10195;50.868;4.382;2022-11-20T00:58:22;4.90;99.90
20070;DHT22;10195;50.868;4.382;2022-11-20T01:00:48;4.90;99.90
20070;DHT22;10195;50.868;4.382;2022-11-20T01:03:15;4.80;99.90
20070;DHT22;10195;50.868;4.382;2022-11-20T01:05:41;4.80;99.90
20070;DHT22;10195;50.868;4.382;2022-11-20T01:08:07;4.80;99.90
20070;DHT22;10195;50.868;4.382;2022-11-20T01:10:33;4.90;99.90
20070;DHT22;10195;50.868;4.382;2022-11-20T01:12:58;5.10;99.90
20070;DHT22;10195;50.868;4.382;2022-11-20T01:15:42;5.10;99.90
20070;DHT22;10195;50.868;4.382;2022-11-20T01:18:08;5.10;99.90
20070;DHT22;10195;50.868;4.382;2022-11-20T01:20:35;4.90;99.90
20070;DHT22;10195;50.868;4.382;2022-11-20T01:23:02;5.00;99.90
20070;DHT22;10195;50.868;4.382;2022-11-20T01:25:28;5.10;99.90
20070;DHT22;10195;50.868;4.382;2022-11-20T01:27:53;5.20;99.90
20070;DHT22;10195;50.868;4.382;2022-11-20T01:30:19;5.10;99.90
20070;DHT22;10195;50.868;4.382;2022-11-20T01:32:44;5.20;99.90
20070;DHT22;10195;50.868;4.382;2022-11-20T01:35:10;5.10;99.90
20070;DHT22;10195;50.868;4.382;2022-11-20T01:37:35;5.10;99.90
20070;DHT22;10195;50.868;4.382;2022-11-20T01:40:01;5.20;99.90
20070;DHT22;10195;50.868;4.382;2022-11-20T01:42:27;5.20;99.90
20070;DHT22;10195;50.868;4.382;2022-11-20T01:48:13;5.40;99.90
20070;DHT22;10195;50.868;4.382;2022-11-20T01:50:40;5.30;99.90
20070;DHT22;10195;50.868;4.382;2022-11-20T01:53:09;5.20;99.90
20070;DHT22;10195;50.868;4.382;2022-11-20T01:55:41;5.30;99.90
20070;DHT22;10195;50.868;4.382;2022-11-20T01:58:09;5.20;99.90
20070;DHT22;10195;50.868;4.382;2022-11-20T02:00:35;5.30;99.90
20070;DHT22;10195;50.868;4.382;2022-11-20T02:03:05;5.40;99.90
20070;DHT22;10195;50.868;4.382;2022-11-20T02:05:45;5.50;99.90
20070;DHT22;10195;50.868;4.382;2022-11-20T02:08:12;5.50;99.90
20070;DHT22;10195;50.868;4.382;2022-11-20T02:10:38;5.50;99.90
20070;DHT22;10195;50.868;4.382;2022-11-20T02:13:04;5.50;99.90
20070;DHT22;10195;50.868;4.382;2022-11-20T02:15:49;5.50;99.90
20070;DHT22;10195;50.868;4.382;2022-11-20T02:18:16;5.50;99.90
20070;DHT22;10195;50.868;4.382;2022-11-20T02:20:44;5.50;99.90
20070;DHT22;10195;50.868;4.382;2022-11-20T02:23:33;5.50;99.90
20070;DHT22;10195;50.868;4.382;2022-11-20T02:26:04;5.50;99.90
20070;DHT22;10195;50.868;4.382;2022-11-20T02:28:31;5.50;99.90
20070;DHT22;10195;50.868;4.382;2022-11-20T02:30:56;5.30;99.90
20070;DHT22;10195;50.868;4.382;2022-11-20T02:33:22;5.20;99.90
20070;DHT22;10195;50.868;4.382;2022-11-20T02:35:48;5.10;99.90
20070;DHT22;10195;50.868;4.382;2022-11-20T02:38:14;5.00;99.90
20070;DHT22;10195;50.868;4.382;2022-11-20T02:40:40;5.10;99.90
20070;DHT22;10195;50.868;4.382;2022-11-20T02:43:06;5.20;99.90
20070;DHT22;10195;50.868;4.382;2022-11-20T02:45:32;5.40;99.90
20070;DHT22;10195;50.868;4.382;2022-11-20T02:47:58;5.30;99.90
20070;DHT22;10195;50.868;4.382;2022-11-20T02:50:23;5.40;99.90
20070;DHT22;10195;50.868;4.382;2022-11-20T02:52:49;5.40;99.90
20070;DHT22;10195;50.868;4.382;2022-11-20T02:55:14;5.40;99.90
20070;DHT22;10195;50.868;4.382;2022-11-20T02:57:40;5.50;99.90
20070;DHT22;10195;50.868;4.382;2022-11-20T03:00:06;5.50;99.90
20070;DHT22;10195;50.868;4.382;2022-11-20T03:02:32;5.60;99.90
20070;DHT22;10195;50.868;4.382;2022-11-20T03:04:58;5.70;99.90
20070;DHT22;10195;50.868;4.382;2022-11-20T03:07:24;5.60;99.90
20070;DHT22;10195;50.868;4.382;2022-11-20T03:09:50;5.60;99.90
20070;DHT22;10195;50.868;4.382;2022-11-20T03:12:15;5.60;99.90
20070;DHT22;10195;50.868;4.382;2022-11-20T03:14:41;5.40;99.90
20070;DHT22;10195;50.868;4.382;2022-11-20T03:17:06;5.40;99.90
20070;DHT22;10195;50.868;4.382;2022-11-20T03:19:32;5.40;99.90
20070;DHT22;10195;50.868;4.382;2022-11-20T03:21:58;5.40;99.90
20070;DHT22;10195;50.868;4.382;2022-11-20T03:24:23;5.30;99.90
20070;DHT22;10195;50.868;4.382;2022-11-20T03:26:49;5.30;99.90
20070;DHT22;10195;50.868;4.382;2022-11-20T03:29:14;5.30;99.90
20070;DHT22;10195;50.868;4.382;2022-11-20T03:31:40;5.30;99.90
20070;DHT22;10195;50.868;4.382;2022-11-20T03:34:07;5.20;99.90
20070;DHT22;10195;50.868;4.382;2022-11-20T03:36:33;5.40;99.90
20070;DHT22;10195;50.868;4.382;2022-11-20T03:38:59;5.40;99.90
20070;DHT22;10195;50.868;4.382;2022-11-20T03:41:30;5.40;99.90
20070;DHT22;10195;50.868;4.382;2022-11-20T03:43:58;5.40;99.90
20070;DHT22;10195;50.868;4.382;2022-11-20T03:46:24;5.50;99.90
20070;DHT22;10195;50.868;4.382;2022-11-20T03:48:49;5.60;99.90
20070;DHT22;10195;50.868;4.382;2022-11-20T03:51:20;5.70;99.90
20070;DHT22;10195;50.868;4.382;2022-11-20T03:53:48;5.60;99.90
20070;DHT22;10195;50.868;4.382;2022-11-20T03:56:16;5.50;99.90
20070;DHT22;10195;50.868;4.382;2022-11-20T03:58:42;5.60;99.90
20070;DHT22;10195;50.868;4.382;2022-11-20T04:01:13;5.70;99.90
20070;DHT22;10195;50.868;4.382;2022-11-20T04:03:41;5.60;99.90
20070;DHT22;10195;50.868;4.382;2022-11-20T04:06:09;5.50;99.90
20070;DHT22;10195;50.868;4.382;2022-11-20T04:08:35;5.70;99.90
20070;DHT22;10195;50.868;4.382;2022-11-20T04:11:18;5.80;99.90
20070;DHT22;10195;50.868;4.382;2022-11-20T04:13:49;5.80;99.90
20070;DHT22;10195;50.868;4.382;2022-11-20T04:16:16;5.80;99.90
20070;DHT22;10195;50.868;4.382;2022-11-20T04:18:42;5.80;99.90
20070;DHT22;10195;50.868;4.382;2022-11-20T04:21:09;5.90;99.90
20070;DHT22;10195;50.868;4.382;2022-11-20T04:23:34;5.90;99.90
20070;DHT22;10195;50.868;4.382;2022-11-20T04:26:09;6.00;99.90
20070;DHT22;10195;50.868;4.382;2022-11-20T04:28:35;5.90;99.90
20070;DHT22;10195;50.868;4.382;2022-11-20T04:31:10;5.90;99.90
20070;DHT22;10195;50.868;4.382;2022-11-20T04:33:36;5.90;99.90
20070;DHT22;10195;50.868;4.382;2022-11-20T04:38:29;6.00;99.90
20070;DHT22;10195;50.868;4.382;2022-11-20T04:41:00;6.10;99.90
20070;DHT22;10195;50.868;4.382;2022-11-20T04:43:26;6.10;99.90
20070;DHT22;10195;50.868;4.382;2022-11-20T04:45:53;5.90;99.90
20070;DHT22;10195;50.868;4.382;2022-11-20T04:48:18;5.90;99.90
20070;DHT22;10195;50.868;4.382;2022-11-20T04:50:47;6.10;99.90
20070;DHT22;10195;50.868;4.382;2022-11-20T04:53:13;6.20;99.90
20070;DHT22;10195;50.868;4.382;2022-11-20T04:55:39;6.10;99.90
20070;DHT22;10195;50.868;4.382;2022-11-20T04:58:05;6.10;99.90
20070;DHT22;10195;50.868;4.382;2022-11-20T05:00:33;6.10;99.90
20070;DHT22;10195;50.868;4.382;2022-11-20T05:02:59;6.10;99.90
20070;DHT22;10195;50.868;4.382;2022-11-20T05:05:24;6.10;99.90
20070;DHT22;10195;50.868;4.382;2022-11-20T05:07:50;6.10;99.90
20070;DHT22;10195;50.868;4.382;2022-11-20T05:10:15;6.30;99.90
20070;DHT22;10195;50.868;4.382;2022-11-20T05:12:41;6.20;99.90
20070;DHT22;10195;50.868;4.382;2022-11-20T05:15:07;6.30;99.90
20070;DHT22;10195;50.868;4.382;2022-11-20T05:17:33;6.20;99.90
20070;DHT22;10195;50.868;4.382;2022-11-20T05:19:58;6.10;99.90
20070;DHT22;10195;50.868;4.382;2022-11-20T05:22:24;6.20;99.90
20070;DHT22;10195;50.868;4.382;2022-11-20T05:24:50;6.30;99.90
20070;DHT22;10195;50.868;4.382;2022-11-20T05:27:15;6.30;99.90
20070;DHT22;10195;50.868;4.382;2022-11-20T05:29:41;6.40;99.90
20070;DHT22;10195;50.868;4.382;2022-11-20T05:32:07;6.50;99.90
20070;DHT22;10195;50.868;4.382;2022-11-20T05:34:35;6.50;99.90
20070;DHT22;10195;50.868;4.382;2022-11-20T05:37:01;6.50;99.90
20070;DHT22;10195;50.868;4.382;2022-11-20T05:39:26;6.40;99.90
20070;DHT22;10195;50.868;4.382;2022-11-20T05:41:52;6.50;99.90
20070;DHT22;10195;50.868;4.382;2022-11-20T05:44:37;6.40;99.90
20070;DHT22;10195;50.868;4.382;2022-11-20T05:47:03;6.40;99.90
20070;DHT22;10195;50.868;4.382;2022-11-20T05:49:29;6.50;99.90
20070;DHT22;10195;50.868;4.382;2022-11-20T05:51:54;6.50;99.90
20070;DHT22;10195;50.868;4.382;2022-11-20T05:54:20;6.50;99.90
20070;DHT22;10195;50.868;4.382;2022-11-20T05:56:45;6.50;99.90
20070;DHT22;10195;50.868;4.382;2022-11-20T05:59:11;6.40;99.90
20070;DHT22;10195;50.868;4.382;2022-11-20T06:01:36;6.50;99.90
20070;DHT22;10195;50.868;4.382;2022-11-20T06:04:02;6.40;99.90
20070;DHT22;10195;50.868;4.382;2022-11-20T06:06:28;6.40;99.90
20070;DHT22;10195;50.868;4.382;2022-11-20T06:08:54;6.50;99.90
20070;DHT22;10195;50.868;4.382;2022-11-20T06:11:20;6.40;99.90
20070;DHT22;10195;50.868;4.382;2022-11-20T06:13:46;6.20;99.90
20070;DHT22;10195;50.868;4.382;2022-11-20T06:16:14;6.20;99.90
20070;DHT22;10195;50.868;4.382;2022-11-20T06:18:40;6.20;99.90
20070;DHT22;10195;50.868;4.382;2022-11-20T06:21:08;6.20;99.90
20070;DHT22;10195;50.868;4.382;2022-11-20T06:23:35;6.30;99.90
20070;DHT22;10195;50.868;4.382;2022-11-20T06:26:03;6.40;99.90
20070;DHT22;10195;50.868;4.382;2022-11-20T06:28:29;6.30;99.90
20070;DHT22;10195;50.868;4.382;2022-11-20T06:30:54;6.30;99.90
20070;DHT22;10195;50.868;4.382;2022-11-20T06:33:20;6.10;99.90
20070;DHT22;10195;50.868;4.382;2022-11-20T06:35:45;6.20;99.90
20070;DHT22;10195;50.868;4.382;2022-11-20T06:38:11;6.10;99.90
20070;DHT22;10195;50.868;4.382;2022-11-20T06:40:40;6.20;99.90
20070;DHT22;10195;50.868;4.382;2022-11-20T06:43:06;6.20;99.90
20070;DHT22;10195;50.868;4.382;2022-11-20T06:45:31;6.10;99.90
20070;DHT22;10195;50.868;4.382;2022-11-20T06:47:57;6.10;99.90
20070;DHT22;10195;50.868;4.382;2022-11-20T06:50:23;6.20;99.90
20070;DHT22;10195;50.868;4.382;2022-11-20T06:52:49;6.20;99.90
20070;DHT22;10195;50.868;4.382;2022-11-20T06:55:15;6.30;99.90
20070;DHT22;10195;50.868;4.382;2022-11-20T06:57:40;6.30;99.90
20070;DHT22;10195;50.868;4.382;2022-11-20T07:00:06;6.40;99.90
20070;DHT22;10195;50.868;4.382;2022-11-20T07:02:32;6.40;99.90
20070;DHT22;10195;50.868;4.382;2022-11-20T07:04:58;6.40;99.90
20070;DHT22;10195;50.868;4.382;2022-11-20T07:07:23;6.40;99.90
20070;DHT22;10195;50.868;4.382;2022-11-20T07:09:49;6.40;99.90
20070;DHT22;10195;50.868;4.382;2022-11-20T07:12:14;6.50;99.90
20070;DHT22;10195;50.868;4.382;2022-11-20T07:14:40;6.50;99.90
20070;DHT22;10195;50.868;4.382;2022-11-20T07:17:05;6.60;99.90
20070;DHT22;10195;50.868;4.382;2022-11-20T07:19:31;6.60;99.90
20070;DHT22;10195;50.868;4.382;2022-11-20T07:21:57;6.50;99.90
20070;DHT22;10195;50.868;4.382;2022-11-20T07:24:22;6.50;99.90
20070;DHT22;10195;50.868;4.382;2022-11-20T07:26:48;6.60;99.90
20070;DHT22;10195;50.868;4.382;2022-11-20T07:29:16;6.60;99.90
20070;DHT22;10195;50.868;4.382;2022-11-20T07:31:42;6.50;99.90
20070;DHT22;10195;50.868;4.382;2022-11-20T07:34:08;6.50;99.90
20070;DHT22;10195;50.868;4.382;2022-11-20T07:36:34;6.70;99.90
20070;DHT22;10195;50.868;4.382;2022-11-20T07:38:59;6.90;99.90
20070;DHT22;10195;50.868;4.382;2022-11-20T07:41:25;6.90;99.90
20070;DHT22;10195;50.868;4.382;2022-11-20T07:43:51;7.00;99.90
20070;DHT22;10195;50.868;4.382;2022-11-20T07:46:16;7.00;99.90
20070;DHT22;10195;50.868;4.382;2022-11-20T07:48:42;7.00;99.90
20070;DHT22;10195;50.868;4.382;2022-11-20T07:51:07;6.90;99.90
20070;DHT22;10195;50.868;4.382;2022-11-20T07:53:33;6.90;99.90
20070;DHT22;10195;50.868;4.382;2022-11-20T07:56:00;6.90;99.90
20070;DHT22;10195;50.868;4.382;2022-11-20T07:58:26;6.80;99.90
20070;DHT22;10195;50.868;4.382;2022-11-20T08:00:51;6.70;99.90
20070;DHT22;10195;50.868;4.382;2022-11-20T08:03:17;6.90;99.90
20070;DHT22;10195;50.868;4.382;2022-11-20T08:05:42;6.90;99.90
20070;DHT22;10195;50.868;4.382;2022-11-20T08:08:08;6.80;99.90
20070;DHT22;10195;50.868;4.382;2022-11-20T08:10:34;6.80;99.90
20070;DHT22;10195;50.868;4.382;2022-11-20T08:12:59;6.90;99.90
20070;DHT22;10195;50.868;4.382;2022-11-20T08:15:48;6.90;99.90
20070;DHT22;10195;50.868;4.382;2022-11-20T08:18:15;7.20;99.90
20070;DHT22;10195;50.868;4.382;2022-11-20T08:20:41;7.00;99.90
20070;DHT22;10195;50.868;4.382;2022-11-20T08:23:07;7.20;99.90
20070;DHT22;10195;50.868;4.382;2022-11-20T08:25:34;7.20;99.90
20070;DHT22;10195;50.868;4.382;2022-11-20T08:28:02;7.30;99.90
20070;DHT22;10195;50.868;4.382;2022-11-20T08:30:28;7.30;99.90
20070;DHT22;10195;50.868;4.382;2022-11-20T08:32:54;7.10;99.90
20070;DHT22;10195;50.868;4.382;2022-11-20T08:35:21;7.20;99.90
20070;DHT22;10195;50.868;4.382;2022-11-20T08:37:47;7.30;99.90
20070;DHT22;10195;50.868;4.382;2022-11-20T08:40:13;7.40;99.90
20070;DHT22;10195;50.868;4.382;2022-11-20T08:42:49;7.50;99.90
20070;DHT22;10195;50.868;4.382;2022-11-20T08:45:15;7.60;99.90
20070;DHT22;10195;50.868;4.382;2022-11-20T08:47:42;7.60;99.90
20070;DHT22;10195;50.868;4.382;2022-11-20T08:50:09;7.60;99.90
20070;DHT22;10195;50.868;4.382;2022-11-20T08:52:35;7.80;99.90
20070;DHT22;10195;50.868;4.382;2022-11-20T08:55:00;7.80;99.90
20070;DHT22;10195;50.868;4.382;2022-11-20T08:57:26;7.90;99.90
20070;DHT22;10195;50.868;4.382;2022-11-20T08:59:51;7.90;99.90
20070;DHT22;10195;50.868;4.382;2022-11-20T09:02:17;7.90;99.90
20070;DHT22;10195;50.868;4.382;2022-11-20T09:04:42;8.00;99.90
20070;DHT22;10195;50.868;4.382;2022-11-20T09:07:08;8.10;99.90
20070;DHT22;10195;50.868;4.382;2022-11-20T09:09:34;8.00;99.90
20070;DHT22;10195;50.868;4.382;2022-11-20T09:11:59;8.10;99.90
20070;DHT22;10195;50.868;4.382;2022-11-20T09:14:25;8.20;99.90
20070;DHT22;10195;50.868;4.382;2022-11-20T09:16:54;8.20;99.90
20070;DHT22;10195;50.868;4.382;2022-11-20T09:19:20;8.30;99.90
20070;DHT22;10195;50.868;4.382;2022-11-20T09:21:46;8.30;99.90
20070;DHT22;10195;50.868;4.382;2022-11-20T09:24:11;8.50;99.90
20070;DHT22;10195;50.868;4.382;2022-11-20T09:26:37;8.60;99.90
20070;DHT22;10195;50.868;4.382;2022-11-20T09:29:02;8.60;99.90
20070;DHT22;10195;50.868;4.382;2022-11-20T09:31:28;8.50;99.90
20070;DHT22;10195;50.868;4.382;2022-11-20T09:33:54;8.50;99.90
20070;DHT22;10195;50.868;4.382;2022-11-20T09:36:20;8.80;99.90
20070;DHT22;10195;50.868;4.382;2022-11-20T09:38:46;8.80;99.90
20070;DHT22;10195;50.868;4.382;2022-11-20T09:44:07;8.90;99.90
20070;DHT22;10195;50.868;4.382;2022-11-20T09:46:48;8.70;99.90
20070;DHT22;10195;50.868;4.382;2022-11-20T09:52:39;9.00;99.90
20070;DHT22;10195;50.868;4.382;2022-11-20T09:55:11;9.00;99.90
20070;DHT22;10195;50.868;4.382;2022-11-20T09:57:41;9.00;99.90
20070;DHT22;10195;50.868;4.382;2022-11-20T10:00:13;8.90;99.90
20070;DHT22;10195;50.868;4.382;2022-11-20T10:05:27;9.10;99.90
20070;DHT22;10195;50.868;4.382;2022-11-20T10:10:54;9.10;99.90
20070;DHT22;10195;50.868;4.382;2022-11-20T10:29:32;9.50;99.90
20070;DHT22;10195;50.868;4.382;2022-11-20T10:32:04;9.60;99.90
20070;DHT22;10195;50.868;4.382;2022-11-20T10:34:57;9.70;99.90
20070;DHT22;10195;50.868;4.382;2022-11-20T10:37:29;9.90;99.90
20070;DHT22;10195;50.868;4.382;2022-11-20T10:42:53;10.40;99.90
20070;DHT22;10195;50.868;4.382;2022-11-20T10:48:16;10.40;99.90
20070;DHT22;10195;50.868;4.382;2022-11-20T10:50:46;10.20;99.90
20070;DHT22;10195;50.868;4.382;2022-11-20T10:53:32;10.50;99.90
20070;DHT22;10195;50.868;4.382;2022-11-20T10:56:07;10.60;99.90
20070;DHT22;10195;50.868;4.382;2022-11-20T10:59:00;10.80;99.90
20070;DHT22;10195;50.868;4.382;2022-11-20T11:01:27;10.70;99.90
20070;DHT22;10195;50.868;4.382;2022-11-20T11:03:55;10.80;99.90
20070;DHT22;10195;50.868;4.382;2022-11-20T11:06:34;10.70;99.90
20070;DHT22;10195;50.868;4.382;2022-11-20T11:09:11;10.40;99.90
20070;DHT22;10195;50.868;4.382;2022-11-20T11:11:39;10.40;99.90
20070;DHT22;10195;50.868;4.382;2022-11-20T11:14:06;10.40;99.90
20070;DHT22;10195;50.868;4.382;2022-11-20T11:16:32;10.40;99.90
20070;DHT22;10195;50.868;4.382;2022-11-20T11:19:13;10.50;99.90
20070;DHT22;10195;50.868;4.382;2022-11-20T11:21:38;10.50;99.90
20070;DHT22;10195;50.868;4.382;2022-11-20T11:24:22;10.50;99.90
20070;DHT22;10195;50.868;4.382;2022-11-20T11:27:12;10.50;99.90
20070;DHT22;10195;50.868;4.382;2022-11-20T11:29:38;10.70;99.90
20070;DHT22;10195;50.868;4.382;2022-11-20T11:32:06;10.50;99.90
20070;DHT22;10195;50.868;4.382;2022-11-20T11:34:32;10.40;99.90
20070;DHT22;10195;50.868;4.382;2022-11-20T11:36:58;10.50;99.90
20070;DHT22;10195;50.868;4.382;2022-11-20T11:39:25;10.50;99.90
20070;DHT22;10195;50.868;4.382;2022-11-20T11:41:52;10.60;99.90
20070;DHT22;10195;50.868;4.382;2022-11-20T11:44:21;10.60;99.90
20070;DHT22;10195;50.868;4.382;2022-11-20T11:47:29;10.60;99.90
20070;DHT22;10195;50.868;4.382;2022-11-20T11:52:49;10.20;99.90
20070;DHT22;10195;50.868;4.382;2022-11-20T12:01:24;10.10;99.90
20070;DHT22;10195;50.868;4.382;2022-11-20T12:06:36;10.20;99.90
20070;DHT22;10195;50.868;4.382;2022-11-20T12:09:08;10.00;99.90
20070;DHT22;10195;50.868;4.382;2022-11-20T12:11:59;10.00;99.90
20070;DHT22;10195;50.868;4.382;2022-11-20T12:14:37;10.00;99.90
20070;DHT22;10195;50.868;4.382;2022-11-20T12:17:04;10.00;99.90
20070;DHT22;10195;50.868;4.382;2022-11-20T12:19:31;9.70;99.90
20070;DHT22;10195;50.868;4.382;2022-11-20T12:22:24;9.50;99.90
20070;DHT22;10195;50.868;4.382;2022-11-20T12:25:09;9.40;99.90
20070;DHT22;10195;50.868;4.382;2022-11-20T12:30:24;9.40;99.90
20070;DHT22;10195;50.868;4.382;2022-11-20T12:43:59;8.80;99.90
20070;DHT22;10195;50.868;4.382;2022-11-20T12:47:14;8.80;99.90
20070;DHT22;10195;50.868;4.382;2022-11-20T12:55:08;9.10;99.90
20070;DHT22;10195;50.868;4.382;2022-11-20T13:08:40;9.40;99.90
20070;DHT22;10195;50.868;4.382;2022-11-20T13:16:41;9.40;99.90
20070;DHT22;10195;50.868;4.382;2022-11-20T13:19:12;9.30;99.90
20070;DHT22;10195;50.868;4.382;2022-11-20T13:21:44;9.20;99.90
20070;DHT22;10195;50.868;4.382;2022-11-20T13:24:23;9.20;99.90
20070;DHT22;10195;50.868;4.382;2022-11-20T13:29:27;9.10;99.90
20070;DHT22;10195;50.868;4.382;2022-11-20T13:34:30;8.90;99.90
20070;DHT22;10195;50.868;4.382;2022-11-20T13:36:57;8.90;99.90
20070;DHT22;10195;50.868;4.382;2022-11-20T13:39:34;8.90;99.90
20070;DHT22;10195;50.868;4.382;2022-11-20T13:42:02;8.90;99.90
20070;DHT22;10195;50.868;4.382;2022-11-20T13:44:53;8.80;99.90
20070;DHT22;10195;50.868;4.382;2022-11-20T13:47:27;8.80;99.90
20070;DHT22;10195;50.868;4.382;2022-11-20T13:49:54;8.90;99.90
20070;DHT22;10195;50.868;4.382;2022-11-20T14:01:28;9.10;99.90
20070;DHT22;10195;50.868;4.382;2022-11-20T14:03:56;9.20;99.90
20070;DHT22;10195;50.868;4.382;2022-11-20T14:08:48;9.20;99.90
20070;DHT22;10195;50.868;4.382;2022-11-20T14:11:16;9.20;99.90
20070;DHT22;10195;50.868;4.382;2022-11-20T14:14:00;9.30;99.90
20070;DHT22;10195;50.868;4.382;2022-11-20T14:16:30;9.10;99.90
20070;DHT22;10195;50.868;4.382;2022-11-20T14:18:57;9.00;99.90
20070;DHT22;10195;50.868;4.382;2022-11-20T14:21:28;9.00;99.90
20070;DHT22;10195;50.868;4.382;2022-11-20T14:24:04;9.00;99.90
20070;DHT22;10195;50.868;4.382;2022-11-20T14:26:31;9.00;99.90
20070;DHT22;10195;50.868;4.382;2022-11-20T14:28:57;9.00;99.90
20070;DHT22;10195;50.868;4.382;2022-11-20T14:31:25;9.10;99.90
20070;DHT22;10195;50.868;4.382;2022-11-20T14:33:55;9.10;99.90
20070;DHT22;10195;50.868;4.382;2022-11-20T14:36:23;9.10;99.90
20070;DHT22;10195;50.868;4.382;2022-11-20T14:38:51;9.20;99.90
20070;DHT22;10195;50.868;4.382;2022-11-20T14:41:22;9.20;99.90
20070;DHT22;10195;50.868;4.382;2022-11-20T14:43:58;9.30;99.90
20070;DHT22;10195;50.868;4.382;2022-11-20T14:46:24;9.30;99.90
20070;DHT22;10195;50.868;4.382;2022-11-20T14:49:00;9.30;99.90
20070;DHT22;10195;50.868;4.382;2022-11-20T14:51:34;9.30;99.90
20070;DHT22;10195;50.868;4.382;2022-11-20T14:54:28;9.30;99.90
20070;DHT22;10195;50.868;4.382;2022-11-20T14:56:55;9.20;99.90
20070;DHT22;10195;50.868;4.382;2022-11-20T14:59:27;9.20;99.90
20070;DHT22;10195;50.868;4.382;2022-11-20T15:01:58;9.20;99.90
20070;DHT22;10195;50.868;4.382;2022-11-20T15:04:25;9.30;99.90
20070;DHT22;10195;50.868;4.382;2022-11-20T15:06:53;9.30;99.90
20070;DHT22;10195;50.868;4.382;2022-11-20T15:09:19;9.40;99.90
20070;DHT22;10195;50.868;4.382;2022-11-20T15:11:59;9.40;99.90
20070;DHT22;10195;50.868;4.382;2022-11-20T15:14:27;9.40;99.90
20070;DHT22;10195;50.868;4.382;2022-11-20T15:16:53;9.40;99.90
20070;DHT22;10195;50.868;4.382;2022-11-20T15:19:21;9.40;99.90
20070;DHT22;10195;50.868;4.382;2022-11-20T15:21:47;9.50;99.90
20070;DHT22;10195;50.868;4.382;2022-11-20T15:24:13;9.50;99.90
20070;DHT22;10195;50.868;4.382;2022-11-20T15:26:38;9.40;99.90
20070;DHT22;10195;50.868;4.382;2022-11-20T15:29:15;9.40;99.90
20070;DHT22;10195;50.868;4.382;2022-11-20T15:31:44;9.40;99.90
20070;DHT22;10195;50.868;4.382;2022-11-20T15:34:18;9.50;99.90
20070;DHT22;10195;50.868;4.382;2022-11-20T15:36:44;9.70;99.90
20070;DHT22;10195;50.868;4.382;2022-11-20T15:39:11;9.60;99.90
20070;DHT22;10195;50.868;4.382;2022-11-20T15:41:37;9.60;99.90
20070;DHT22;10195;50.868;4.382;2022-11-20T15:44:04;9.60;99.90
20070;DHT22;10195;50.868;4.382;2022-11-20T15:46:32;9.60;99.90
20070;DHT22;10195;50.868;4.382;2022-11-20T15:49:03;9.70;99.90
20070;DHT22;10195;50.868;4.382;2022-11-20T15:53:55;9.60;99.90
20070;DHT22;10195;50.868;4.382;2022-11-20T15:56:21;9.60;99.90
20070;DHT22;10195;50.868;4.382;2022-11-20T15:58:47;9.70;99.90
20070;DHT22;10195;50.868;4.382;2022-11-20T16:01:15;9.70;99.90
20070;DHT22;10195;50.868;4.382;2022-11-20T16:03:41;9.70;99.90
20070;DHT22;10195;50.868;4.382;2022-11-20T16:06:07;9.70;99.90
20070;DHT22;10195;50.868;4.382;2022-11-20T16:08:33;9.70;99.90
20070;DHT22;10195;50.868;4.382;2022-11-20T16:10:59;9.60;99.90
20070;DHT22;10195;50.868;4.382;2022-11-20T16:13:25;9.70;99.90
20070;DHT22;10195;50.868;4.382;2022-11-20T16:16:27;9.80;99.90
20070;DHT22;10195;50.868;4.382;2022-11-20T16:18:54;9.70;99.90
20070;DHT22;10195;50.868;4.382;2022-11-20T16:21:20;9.70;99.90
20070;DHT22;10195;50.868;4.382;2022-11-20T16:23:46;9.70;99.90
20070;DHT22;10195;50.868;4.382;2022-11-20T16:26:13;9.60;99.90
20070;DHT22;10195;50.868;4.382;2022-11-20T16:28:39;9.60;99.90
20070;DHT22;10195;50.868;4.382;2022-11-20T16:31:10;9.70;99.90
20070;DHT22;10195;50.868;4.382;2022-11-20T16:33:35;9.60;99.90
20070;DHT22;10195;50.868;4.382;2022-11-20T16:36:12;9.60;99.90
20070;DHT22;10195;50.868;4.382;2022-11-20T16:38:38;9.60;99.90
20070;DHT22;10195;50.868;4.382;2022-11-20T16:41:04;9.60;99.90
20070;DHT22;10195;50.868;4.382;2022-11-20T16:43:30;9.60;99.90
20070;DHT22;10195;50.868;4.382;2022-11-20T16:45:55;9.70;99.90
20070;DHT22;10195;50.868;4.382;2022-11-20T16:48:21;9.70;99.90
20070;DHT22;10195;50.868;4.382;2022-11-20T16:50:52;9.70;99.90
20070;DHT22;10195;50.868;4.382;2022-11-20T16:53:19;9.70;99.90
20070;DHT22;10195;50.868;4.382;2022-11-20T16:55:45;9.70;99.90
20070;DHT22;10195;50.868;4.382;2022-11-20T16:58:11;9.70;99.90
20070;DHT22;10195;50.868;4.382;2022-11-20T17:00:38;9.70;99.90
20070;DHT22;10195;50.868;4.382;2022-11-20T17:03:05;9.70;99.90
20070;DHT22;10195;50.868;4.382;2022-11-20T17:05:31;9.60;99.90
20070;DHT22;10195;50.868;4.382;2022-11-20T17:07:57;9.50;99.90
20070;DHT22;10195;50.868;4.382;2022-11-20T17:10:22;9.30;99.90
20070;DHT22;10195;50.868;4.382;2022-11-20T17:12:48;9.20;99.90
20070;DHT22;10195;50.868;4.382;2022-11-20T17:15:13;9.10;99.90
20070;DHT22;10195;50.868;4.382;2022-11-20T17:17:39;9.00;99.90
20070;DHT22;10195;50.868;4.382;2022-11-20T17:20:05;9.00;99.90
20070;DHT22;10195;50.868;4.382;2022-11-20T17:22:31;9.10;99.90
20070;DHT22;10195;50.868;4.382;2022-11-20T17:24:57;9.10;99.90
20070;DHT22;10195;50.868;4.382;2022-11-20T17:27:22;9.20;99.90
20070;DHT22;10195;50.868;4.382;2022-11-20T17:29:48;9.20;99.90
20070;DHT22;10195;50.868;4.382;2022-11-20T17:32:14;9.10;99.90
20070;DHT22;10195;50.868;4.382;2022-11-20T17:34:39;9.10;99.90
20070;DHT22;10195;50.868;4.382;2022-11-20T17:37:05;8.80;99.90
20070;DHT22;10195;50.868;4.382;2022-11-20T17:39:31;8.30;99.90